Wetterdaten: Woche 06.06.16 - 12.06.16 (KW23)
Datum Zeit Temp. A. Feuchte A. Luftdruck Regen Wind Richtung Taupunkt Windchill Windben
06.06.2016 00:00 15,6 C 82 % 1015,8 hPa 0,0 l/m 0,0 km/h N 12,5 C 15,6 C 4,8 km/h
06.06.2016 01:00 15,6 C 82 % 1015,7 hPa 0,0 l/m 0,0 km/h N 12,5 C 15,6 C 2,4 km/h
06.06.2016 02:00 15,5 C 82 % 1015,6 hPa 0,0 l/m 0,0 km/h N 12,4 C 15,5 C 4,8 km/h
06.06.2016 03:00 15,1 C 82 % 1015,7 hPa 0,0 l/m 1,6 km/h N 12,1 C 15,1 C 8,9 km/h
06.06.2016 04:00 16,6 C 78 % 1015,5 hPa 0,0 l/m 3,2 km/h N 12,8 C 16,6 C 12,9 km/h
06.06.2016 05:00 17,0 C 76 % 1015,8 hPa 0,0 l/m 1,6 km/h N 12,7 C 17,0 C 11,3 km/h
06.06.2016 06:00 16,6 C 79 % 1016,5 hPa 0,0 l/m 0,0 km/h N 12,8 C 16,6 C 4,8 km/h
06.06.2016 07:00 17,9 C 79 % 1017,1 hPa 0,0 l/m 3,2 km/h N 14,1 C 17,9 C 13,7 km/h
06.06.2016 08:00 19,5 C 76 % 1017,4 hPa 0,0 l/m 5,6 km/h N 15,0 C 19,5 C 18,5 km/h
06.06.2016 09:00 21,0 C 73 % 1017,6 hPa 0,0 l/m 4,8 km/h N 15,9 C 21,1 C 17,7 km/h
06.06.2016 10:00 22,0 C 70 % 1018,0 hPa 0,0 l/m 4,8 km/h N 16,2 C 22,0 C 16,1 km/h
06.06.2016 11:00 23,1 C 67 % 1018,2 hPa 0,0 l/m 4,0 km/h N 16,5 C 23,1 C 13,7 km/h
06.06.2016 12:00 24,1 C 61 % 1018,0 hPa 0,0 l/m 3,2 km/h N 16,0 C 24,1 C 15,3 km/h
06.06.2016 13:00 24,4 C 60 % 1017,6 hPa 0,0 l/m 1,6 km/h N 16,1 C 24,4 C 9,7 km/h
06.06.2016 14:00 24,9 C 58 % 1017,3 hPa 0,0 l/m 2,4 km/h N 16,0 C 24,9 C 17,7 km/h
06.06.2016 15:00 24,5 C 60 % 1017,3 hPa 0,0 l/m 2,4 km/h N 16,2 C 24,5 C 15,3 km/h
06.06.2016 16:00 24,0 C 57 % 1017,4 hPa 0,0 l/m 5,6 km/h N 15,0 C 24,1 C 21,7 km/h
06.06.2016 17:00 23,8 C 56 % 1017,2 hPa 0,0 l/m 4,8 km/h N 14,3 C 23,8 C 16,9 km/h
06.06.2016 18:00 24,3 C 55 % 1017,2 hPa 0,0 l/m 4,0 km/h N 14,7 C 24,3 C 15,3 km/h
06.06.2016 19:00 24,1 C 56 % 1017,5 hPa 0,0 l/m 1,6 km/h N 14,6 C 24,1 C 12,9 km/h
06.06.2016 20:00 22,7 C 57 % 1017,9 hPa 0,0 l/m 0,8 km/h N 13,6 C 22,7 C 6,4 km/h
06.06.2016 21:00 20,4 C 58 % 1018,8 hPa 0,0 l/m 0,0 km/h N 11,7 C 20,4 C 5,6 km/h
06.06.2016 22:00 19,0 C 59 % 1019,6 hPa 0,0 l/m 0,0 km/h N 10,8 C 19,0 C 2,4 km/h
06.06.2016 23:00 18,1 C 59 % 1019,8 hPa 0,0 l/m 0,0 km/h N 10,0 C 18,1 C 4,0 km/h
07.06.2016 00:00 17,9 C 59 % 1020,3 hPa 0,0 l/m 0,0 km/h N 9,7 C 17,9 C 5,6 km/h
07.06.2016 01:00 16,8 C 63 % 1020,5 hPa 0,0 l/m 0,0 km/h N 9,7 C 16,8 C 1,6 km/h
07.06.2016 02:00 16,3 C 67 % 1020,7 hPa 0,0 l/m 0,0 km/h N 10,1 C 16,3 C 2,4 km/h
07.06.2016 03:00 15,0 C 71 % 1021,0 hPa 0,0 l/m 0,0 km/h N 9,7 C 15,0 C 0,0 km/h
07.06.2016 04:00 13,4 C 77 % 1020,9 hPa 0,0 l/m 0,0 km/h N 9,3 C 13,4 C 0,0 km/h
07.06.2016 05:00 12,1 C 79 % 1021,3 hPa 0,0 l/m 0,0 km/h N 8,5 C 12,1 C 0,8 km/h
07.06.2016 06:00 12,5 C 80 % 1021,6 hPa 0,0 l/m 0,0 km/h N 9,1 C 12,5 C 0,8 km/h
07.06.2016 07:00 13,6 C 78 % 1021,8 hPa 0,0 l/m 0,0 km/h N 9,8 C 13,6 C 0,8 km/h
07.06.2016 08:00 17,5 C 66 % 1022,0 hPa 0,0 l/m 0,0 km/h N 10,9 C 17,5 C 4,0 km/h
07.06.2016 09:00 20,7 C 55 % 1022,0 hPa 0,0 l/m 0,8 km/h N 11,3 C 20,7 C 8,9 km/h
07.06.2016 10:00 21,7 C 53 % 1022,0 hPa 0,0 l/m 0,8 km/h N 11,6 C 21,7 C 7,2 km/h
07.06.2016 11:00 21,7 C 54 % 1022,0 hPa 0,0 l/m 1,6 km/h N 12,0 C 21,7 C 13,7 km/h
07.06.2016 12:00 21,8 C 51 % 1021,9 hPa 0,0 l/m 3,2 km/h N 11,2 C 21,8 C 18,5 km/h
07.06.2016 13:00 21,9 C 49 % 1021,8 hPa 0,0 l/m 4,8 km/h N 10,5 C 21,9 C 17,7 km/h
07.06.2016 14:00 22,6 C 46 % 1021,5 hPa 0,0 l/m 4,0 km/h N 10,4 C 22,6 C 16,1 km/h
07.06.2016 15:00 22,8 C 43 % 1021,2 hPa 0,0 l/m 4,0 km/h N 9,5 C 22,8 C 22,5 km/h
07.06.2016 16:00 22,5 C 41 % 1020,8 hPa 0,0 l/m 3,2 km/h N 8,6 C 22,5 C 16,1 km/h
07.06.2016 17:00 22,9 C 39 % 1020,3 hPa 0,0 l/m 1,6 km/h N 8,2 C 22,9 C 13,7 km/h
07.06.2016 18:00 23,3 C 36 % 1019,9 hPa 0,0 l/m 3,2 km/h N 7,2 C 23,3 C 15,3 km/h
07.06.2016 19:00 23,2 C 38 % 1019,8 hPa 0,0 l/m 0,8 km/h N 8,1 C 23,2 C 8,9 km/h
07.06.2016 20:00 22,0 C 42 % 1019,7 hPa 0,0 l/m 0,0 km/h N 8,3 C 22,0 C 3,2 km/h
07.06.2016 21:00 18,1 C 53 % 1020,0 hPa 0,0 l/m 0,0 km/h N 8,3 C 18,1 C 0,0 km/h
07.06.2016 22:00 15,1 C 62 % 1020,4 hPa 0,0 l/m 0,0 km/h N 7,9 C 15,1 C 0,8 km/h
07.06.2016 23:00 13,5 C 68 % 1020,7 hPa 0,0 l/m 0,0 km/h N 7,6 C 13,5 C 4,0 km/h
08.06.2016 00:00 13,3 C 68 % 1020,7 hPa 0,0 l/m 0,0 km/h N 7,5 C 13,3 C 4,8 km/h
08.06.2016 01:00 12,6 C 71 % 1020,3 hPa 0,0 l/m 0,0 km/h N 7,4 C 12,6 C 1,6 km/h
08.06.2016 02:00 12,0 C 73 % 1020,1 hPa 0,0 l/m 0,8 km/h N 7,3 C 12,0 C 8,1 km/h
08.06.2016 03:00 11,6 C 74 % 1019,8 hPa 0,0 l/m 0,0 km/h N 7,1 C 11,6 C 3,2 km/h
08.06.2016 04:00 10,9 C 77 % 1019,4 hPa 0,0 l/m 0,0 km/h N 6,9 C 10,9 C 2,4 km/h
08.06.2016 05:00 10,4 C 77 % 1019,4 hPa 0,0 l/m 0,0 km/h N 6,6 C 10,4 C 0,5 km/h
08.06.2016 06:00 10,4 C 80 % 1019,3 hPa 0,0 l/m 0,0 km/h N 7,0 C 10,4 C 0,0 km/h
08.06.2016 07:00 11,6 C 80 % 1019,2 hPa 0,0 l/m 0,0 km/h N 8,2 C 11,6 C 0,0 km/h
08.06.2016 08:00 16,4 C 66 % 1019,0 hPa 0,0 l/m 0,1 km/h N 10,0 C 16,4 C 1,2 km/h
08.06.2016 09:00 21,1 C 57 % 1018,6 hPa 0,0 l/m 0,0 km/h N 12,1 C 21,1 C 0,8 km/h
08.06.2016 10:00 22,5 C 52 % 1018,3 hPa 0,0 l/m 0,6 km/h N 12,0 C 22,5 C 3,6 km/h
08.06.2016 11:00 23,6 C 45 % 1018,1 hPa 0,0 l/m 0,3 km/h N 10,8 C 23,6 C 3,6 km/h
08.06.2016 12:00 24,2 C 43 % 1017,5 hPa 0,0 l/m 0,6 km/h N 10,6 C 24,2 C 4,8 km/h
08.06.2016 13:00 25,5 C 44 % 1016,8 hPa 0,0 l/m 0,9 km/h N 12,3 C 25,5 C 5,6 km/h
08.06.2016 14:00 25,5 C 41 % 1016,2 hPa 0,0 l/m 1,5 km/h N 11,3 C 25,5 C 8,5 km/h
08.06.2016 15:00 25,4 C 42 % 1015,6 hPa 0,0 l/m 1,4 km/h N 11,4 C 25,4 C 6,0 km/h
08.06.2016 16:00 24,2 C 42 % 1014,9 hPa 0,0 l/m 1,0 km/h N 10,5 C 24,2 C 6,4 km/h
08.06.2016 17:00 24,6 C 41 % 1014,3 hPa 0,0 l/m 0,5 km/h N 10,3 C 24,6 C 3,6 km/h
08.06.2016 18:00 25,6 C 39 % 1014,1 hPa 0,0 l/m 0,3 km/h N 10,7 C 25,6 C 4,0 km/h
08.06.2016 19:00 25,0 C 40 % 1013,7 hPa 0,0 l/m 0,1 km/h N 10,2 C 25,0 C 1,2 km/h
08.06.2016 20:00 23,3 C 45 % 1013,3 hPa 0,0 l/m 0,0 km/h N 10,6 C 23,3 C 0,0 km/h
08.06.2016 21:00 19,6 C 56 % 1013,2 hPa 0,0 l/m 0,0 km/h N 10,5 C 19,6 C 0,0 km/h
08.06.2016 22:00 16,6 C 65 % 1013,4 hPa 0,0 l/m 0,0 km/h N 10,0 C 16,6 C 0,4 km/h
08.06.2016 23:00 15,6 C 69 % 1013,3 hPa 0,0 l/m 0,1 km/h N 9,8 C 15,6 C 1,6 km/h
09.06.2016 00:00 14,9 C 74 % 1013,2 hPa 0,0 l/m 0,0 km/h N 10,3 C 14,9 C 0,4 km/h
09.06.2016 01:00 14,3 C 76 % 1012,8 hPa 0,0 l/m 0,0 km/h N 10,2 C 14,3 C 2,0 km/h
09.06.2016 02:00 14,1 C 76 % 1012,6 hPa 0,0 l/m 0,1 km/h N 9,9 C 14,1 C 2,0 km/h
09.06.2016 03:00 13,1 C 78 % 1012,4 hPa 0,0 l/m 0,0 km/h N 9,4 C 13,1 C 0,0 km/h
09.06.2016 04:00 12,8 C 81 % 1012,2 hPa 0,0 l/m 0,0 km/h N 9,6 C 12,8 C 0,0 km/h
09.06.2016 05:00 12,9 C 82 % 1012,1 hPa 0,0 l/m 0,0 km/h N 9,9 C 12,9 C 0,0 km/h
09.06.2016 06:00 15,0 C 81 % 1012,2 hPa 0,0 l/m 0,9 km/h N 11,8 C 15,0 C 6,0 km/h
09.06.2016 07:00 18,4 C 71 % 1012,1 hPa 0,0 l/m 1,0 km/h N 13,1 C 18,4 C 6,0 km/h
09.06.2016 08:00 20,2 C 65 % 1012,2 hPa 0,0 l/m 5,3 km/h N 13,3 C 20,1 C 14,5 km/h
09.06.2016 09:00 20,6 C 64 % 1012,3 hPa 0,0 l/m 4,8 km/h N 13,5 C 20,6 C 14,5 km/h
09.06.2016 10:00 21,2 C 63 % 1012,3 hPa 0,0 l/m 6,4 km/h N 14,0 C 21,1 C 15,7 km/h
09.06.2016 11:00 22,0 C 63 % 1012,2 hPa 0,0 l/m 7,4 km/h N 14,7 C 21,7 C 17,7 km/h
09.06.2016 12:00 22,3 C 63 % 1012,0 hPa 0,0 l/m 8,5 km/h N 14,8 C 21,6 C 19,3 km/h
09.06.2016 13:00 23,3 C 62 % 1011,4 hPa 0,0 l/m 7,2 km/h N 15,6 C 23,1 C 20,1 km/h
09.06.2016 14:00 23,3 C 59 % 1011,1 hPa 0,0 l/m 7,9 km/h N 14,9 C 22,9 C 20,1 km/h
09.06.2016 15:00 22,4 C 61 % 1011,2 hPa 0,0 l/m 8,1 km/h N 14,5 C 21,8 C 20,5 km/h
09.06.2016 16:00 22,0 C 62 % 1011,3 hPa 0,0 l/m 5,9 km/h N 14,3 C 21,9 C 17,3 km/h
09.06.2016 17:00 21,2 C 65 % 1011,4 hPa 0,0 l/m 0,8 km/h N 14,3 C 21,2 C 7,6 km/h
09.06.2016 18:00 20,0 C 67 % 1011,5 hPa 0,0 l/m 1,9 km/h N 13,6 C 20,0 C 11,7 km/h
09.06.2016 19:00 19,8 C 64 % 1011,6 hPa 0,0 l/m 7,0 km/h N 12,7 C 19,6 C 17,3 km/h
09.06.2016 20:00 19,3 C 66 % 1011,8 hPa 0,0 l/m 5,0 km/h N 12,6 C 19,2 C 13,7 km/h
09.06.2016 21:00 18,1 C 74 % 1012,0 hPa 0,0 l/m 0,0 km/h N 13,4 C 18,1 C 0,8 km/h
09.06.2016 22:00 17,1 C 79 % 1012,0 hPa 0,0 l/m 0,7 km/h N 13,4 C 17,1 C 5,6 km/h
09.06.2016 23:00 16,7 C 80 % 1012,3 hPa 0,3 l/m 1,5 km/h N 13,2 C 16,7 C 8,0 km/h
10.06.2016 00:00 16,5 C 81 % 1012,4 hPa 0,3 l/m 0,1 km/h N 13,1 C 16,5 C 2,0 km/h
10.06.2016 01:00 15,8 C 82 % 1012,3 hPa 0,5 l/m 0,6 km/h N 12,7 C 15,8 C 6,4 km/h
10.06.2016 02:00 15,3 C 82 % 1012,1 hPa 0,3 l/m 0,3 km/h N 12,3 C 15,3 C 5,6 km/h
10.06.2016 03:00 15,1 C 82 % 1011,7 hPa 0,0 l/m 0,1 km/h N 12,0 C 15,1 C 3,6 km/h
10.06.2016 04:00 14,9 C 82 % 1011,4 hPa 0,0 l/m 1,0 km/h N 11,9 C 14,9 C 7,3 km/h
10.06.2016 05:00 15,1 C 82 % 1011,4 hPa 0,0 l/m 0,6 km/h N 12,1 C 15,1 C 6,0 km/h
10.06.2016 06:00 15,4 C 82 % 1011,4 hPa 0,0 l/m 0,0 km/h N 12,3 C 15,4 C 1,6 km/h
10.06.2016 07:00 16,2 C 82 % 1011,3 hPa 0,0 l/m 0,0 km/h N 13,1 C 16,2 C 2,4 km/h
10.06.2016 08:00 18,0 C 78 % 1011,0 hPa 0,0 l/m 2,8 km/h N 14,0 C 18,0 C 13,3 km/h
10.06.2016 09:00 19,4 C 73 % 1011,1 hPa 0,0 l/m 6,3 km/h N 14,3 C 18,9 C 19,3 km/h
10.06.2016 10:00 19,3 C 71 % 1011,3 hPa 0,0 l/m 8,7 km/h N 13,9 C 18,4 C 21,7 km/h
10.06.2016 11:00 20,7 C 66 % 1011,0 hPa 0,0 l/m 9,6 km/h N 14,1 C 19,6 C 24,9 km/h
10.06.2016 12:00 22,0 C 60 % 1010,5 hPa 0,0 l/m 6,6 km/h N 13,9 C 21,9 C 20,1 km/h
10.06.2016 13:00 23,0 C 54 % 1010,0 hPa 0,0 l/m 7,5 km/h N 13,2 C 22,7 C 19,7 km/h
10.06.2016 14:00 23,6 C 50 % 1009,5 hPa 0,0 l/m 7,4 km/h N 12,4 C 23,2 C 20,9 km/h
10.06.2016 15:00 23,9 C 47 % 1008,9 hPa 0,0 l/m 7,5 km/h N 11,9 C 23,6 C 23,3 km/h
10.06.2016 16:00 23,8 C 43 % 1008,5 hPa 0,0 l/m 9,7 km/h N 10,5 C 22,9 C 25,7 km/h
10.06.2016 17:00 24,1 C 41 % 1008,3 hPa 0,0 l/m 9,3 km/h N 9,8 C 23,3 C 21,7 km/h
10.06.2016 18:00 24,3 C 41 % 1008,0 hPa 0,0 l/m 7,6 km/h N 10,1 C 23,9 C 18,9 km/h
10.06.2016 19:00 23,9 C 43 % 1008,1 hPa 0,0 l/m 4,2 km/h N 10,6 C 23,9 C 13,7 km/h
10.06.2016 20:00 22,6 C 48 % 1008,3 hPa 0,0 l/m 0,5 km/h N 10,8 C 22,6 C 4,4 km/h
10.06.2016 21:00 20,2 C 53 % 1008,7 hPa 0,0 l/m 0,0 km/h N 10,3 C 20,2 C 1,2 km/h
10.06.2016 22:00 18,1 C 61 % 1009,0 hPa 0,0 l/m 0,0 km/h N 10,5 C 18,1 C 0,8 km/h
10.06.2016 23:00 16,6 C 67 % 1009,1 hPa 0,0 l/m 0,0 km/h N 10,5 C 16,6 C 0,8 km/h
11.06.2016 00:00 16,1 C 69 % 1009,0 hPa 0,0 l/m 0,6 km/h N 10,4 C 16,1 C 5,2 km/h
11.06.2016 01:00 15,5 C 71 % 1008,9 hPa 0,0 l/m 0,0 km/h N 10,2 C 15,5 C 0,8 km/h
11.06.2016 02:00 15,1 C 73 % 1008,8 hPa 0,0 l/m 0,0 km/h N 10,3 C 15,1 C 2,0 km/h
11.06.2016 03:00 14,9 C 75 % 1008,5 hPa 0,0 l/m 0,0 km/h N 10,4 C 14,9 C 0,8 km/h
11.06.2016 04:00 13,9 C 77 % 1008,4 hPa 0,0 l/m 0,0 km/h N 10,0 C 13,9 C 0,4 km/h
11.06.2016 05:00 13,1 C 79 % 1008,6 hPa 0,0 l/m 0,0 km/h N 9,6 C 13,1 C 0,4 km/h
11.06.2016 06:00 13,3 C 82 % 1008,6 hPa 0,0 l/m 0,0 km/h N 10,2 C 13,3 C 0,0 km/h
11.06.2016 07:00 15,5 C 82 % 1008,7 hPa 0,0 l/m 0,0 km/h N 12,3 C 15,5 C 0,0 km/h
11.06.2016 08:00 17,4 C 76 % 1009,1 hPa 0,0 l/m 0,0 km/h N 13,2 C 17,4 C 0,8 km/h
11.06.2016 09:00 19,2 C 72 % 1009,5 hPa 0,0 l/m 0,1 km/h N 14,1 C 19,2 C 1,6 km/h
11.06.2016 10:00 21,2 C 65 % 1009,4 hPa 0,0 l/m 0,5 km/h N 14,4 C 21,2 C 6,4 km/h
11.06.2016 11:00 23,2 C 60 % 1009,1 hPa 0,0 l/m 0,4 km/h N 14,9 C 23,2 C 5,2 km/h
11.06.2016 12:00 23,5 C 59 % 1008,8 hPa 0,0 l/m 1,5 km/h N 15,0 C 23,5 C 11,6 km/h
11.06.2016 13:00 22,5 C 61 % 1009,0 hPa 0,0 l/m 0,9 km/h N 14,4 C 22,5 C 8,0 km/h
11.06.2016 14:00 22,5 C 62 % 1008,8 hPa 0,0 l/m 1,0 km/h N 14,9 C 22,5 C 6,8 km/h
11.06.2016 15:00 22,5 C 61 % 1008,6 hPa 0,0 l/m 0,3 km/h N 14,5 C 22,5 C 5,6 km/h
11.06.2016 16:00 22,9 C 62 % 1008,7 hPa 0,0 l/m 0,6 km/h N 15,1 C 22,9 C 6,0 km/h
11.06.2016 17:00 20,8 C 69 % 1008,8 hPa 0,5 l/m 0,7 km/h N 14,9 C 20,8 C 4,0 km/h
11.06.2016 18:00 18,4 C 78 % 1009,2 hPa 0,5 l/m 0,3 km/h N 14,4 C 18,4 C 3,6 km/h
11.06.2016 19:00 17,8 C 75 % 1009,1 hPa 0,0 l/m 0,1 km/h N 13,3 C 17,8 C 2,0 km/h
11.06.2016 20:00 17,9 C 70 % 1009,3 hPa 0,0 l/m 0,1 km/h N 12,2 C 17,9 C 4,4 km/h
11.06.2016 21:00 17,9 C 69 % 1009,8 hPa 0,5 l/m 0,3 km/h N 12,1 C 17,9 C 4,0 km/h
11.06.2016 22:00 15,8 C 79 % 1010,8 hPa 6,0 l/m 0,9 km/h N 12,1 C 15,8 C 6,4 km/h
11.06.2016 23:00 14,8 C 82 % 1010,8 hPa 4,4 l/m 0,0 km/h N 11,7 C 14,8 C 1,2 km/h
12.06.2016 00:00 14,7 C 82 % 1010,7 hPa 1,3 l/m 0,1 km/h N 11,7 C 14,7 C 3,6 km/h
12.06.2016 01:00 14,6 C 82 % 1010,6 hPa 0,8 l/m 0,1 km/h N 11,6 C 14,6 C 2,4 km/h
12.06.2016 02:00 14,5 C 82 % 1010,3 hPa 0,5 l/m 0,0 km/h N 11,4 C 14,5 C 0,4 km/h
12.06.2016 03:00 14,4 C 81 % 1010,0 hPa 0,0 l/m 0,0 km/h N 11,2 C 14,4 C 0,0 km/h
12.06.2016 04:00 14,5 C 81 % 1009,8 hPa 0,0 l/m 0,0 km/h N 11,3 C 14,5 C 1,6 km/h
12.06.2016 05:00 14,6 C 81 % 1010,0 hPa 0,0 l/m 0,0 km/h N 11,4 C 14,6 C 0,8 km/h
12.06.2016 06:00 14,9 C 81 % 1010,3 hPa 0,0 l/m 0,0 km/h N 11,6 C 14,9 C 1,2 km/h
12.06.2016 07:00 14,9 C 81 % 1010,6 hPa 0,3 l/m 0,1 km/h N 11,7 C 14,9 C 2,0 km/h
12.06.2016 08:00 14,9 C 80 % 1010,6 hPa 1,3 l/m 0,1 km/h N 11,5 C 14,9 C 1,6 km/h
12.06.2016 09:00 15,0 C 80 % 1010,6 hPa 0,3 l/m 0,0 km/h N 11,6 C 15,0 C 1,6 km/h
12.06.2016 10:00 15,9 C 80 % 1010,4 hPa 0,0 l/m 0,0 km/h N 12,4 C 15,9 C 1,2 km/h
12.06.2016 11:00 16,8 C 80 % 1010,3 hPa 0,0 l/m 0,0 km/h N 13,3 C 16,8 C 0,8 km/h
12.06.2016 12:00 17,9 C 81 % 1009,4 hPa 0,3 l/m 0,2 km/h N 14,6 C 17,9 C 3,6 km/h
12.06.2016 13:00 19,4 C 78 % 1008,7 hPa 0,3 l/m 0,8 km/h N 15,5 C 19,4 C 6,4 km/h
12.06.2016 14:00 19,5 C 79 % 1008,3 hPa 1,6 l/m 0,1 km/h N 15,8 C 19,5 C 1,2 km/h
12.06.2016 15:00 18,3 C 81 % 1008,1 hPa 8,8 l/m 0,1 km/h N 14,9 C 18,3 C 2,0 km/h
12.06.2016 16:00 18,3 C 81 % 1007,8 hPa 0,3 l/m 0,3 km/h N 15,0 C 18,3 C 3,2 km/h
12.06.2016 17:00 19,0 C 81 % 1007,3 hPa 0,0 l/m 0,1 km/h N 15,7 C 19,0 C 2,0 km/h
12.06.2016 18:00 20,1 C 79 % 1006,7 hPa 0,0 l/m 0,3 km/h N 16,2 C 20,1 C 3,6 km/h
12.06.2016 19:00 19,1 C 80 % 1006,6 hPa 0,0 l/m 0,1 km/h N 15,5 C 19,1 C 2,0 km/h
12.06.2016 20:00 19,2 C 80 % 1006,4 hPa 0,0 l/m 0,0 km/h N 15,6 C 19,2 C 0,0 km/h
12.06.2016 21:00 17,4 C 80 % 1006,6 hPa 0,0 l/m 0,1 km/h N 13,9 C 17,4 C 1,2 km/h
12.06.2016 22:00 16,1 C 82 % 1006,7 hPa 0,0 l/m 0,0 km/h N 13,0 C 16,1 C 0,0 km/h
12.06.2016 23:00 15,4 C 82 % 1006,6 hPa 0,0 l/m 0,0 km/h N 12,3 C 15,4 C 0,0 km/h
Min-Datum _ 08.06.16 07.06.16 12.06.16 - 06.06.16 - 08.06.16 08.06.16 06.06.16
_ Min-Zeit 06:15 18:00 20:15 - 00:00 - 05:45 06:00 01:00
Minimum _ 10,2 C 35 % 1006,3 hPa - 0,0 km/h - 6,4 C 10,2 C 0,0 km/h
Max-Datum _ 08.06.16 06.06.16 07.06.16 12.06.16 10.06.16 - 06.06.16 08.06.16 07.06.16
_ Max-Zeit 15:00 00:00 08:00 15:00 11:15 - 11:00 15:00 15:30
Maximum _ 26,0 C 82 % 1022,0 hPa 8,8 l/m 12,5 km/h
N
- 16,7 C 26,0 C 29,0 km/h
N
Durchschnitt _ 18,7 C 67 % 1013,6 hPa #28,9 l/m 1,6 km/h N 12,0 C 18,6 C 7,0 km/h